Time;durP1;ratioP1;P1;durP2;ratioP2;P2;SDS_P1;SDS_P2;PMS_P1;PMS_P2;Temp;Humidity;BMP_temperature;BMP_pressure;BME280_temperature;BME280_humidity;BME280_pressure;Samples;Min_cycle;Max_cycle;Signal;HPM_P1;HPM_P2
2023/04/19 00:01:19;;;;;;;23.90;15.90;;;;;;;;;;5074293;28;20457;-60
2023/04/19 00:03:47;;;;;;;10.00;9.10;;;;;;;;;;5073957;28;20449;-60
2023/04/19 00:06:16;;;;;;;15.53;12.57;;;;;;;;;;5073951;28;20425;-60
2023/04/19 00:08:42;;;;;;;12.30;10.63;;;;;;;;;;5074509;28;20759;-60
2023/04/19 00:11:09;;;;;;;11.20;10.10;;;;;;;;;;5074048;28;20414;-60
2023/04/19 00:13:35;;;;;;;12.63;11.20;;;;;;;;;;5073672;28;20757;-60
2023/04/19 00:16:01;;;;;;;10.53;9.63;;;;;;;;;;5073850;28;20495;-60
2023/04/19 00:18:27;;;;;;;9.50;8.60;;;;;;;;;;5073539;28;20410;-60
2023/04/19 00:20:53;;;;;;;8.93;8.13;;;;;;;;;;5073645;28;20467;-60
2023/04/19 00:23:22;;;;;;;8.60;7.90;;;;;;;;;;5073882;28;20446;-60
2023/04/19 00:25:48;;;;;;;8.60;7.90;;;;;;;;;;5073344;28;20406;-60
2023/04/19 00:28:15;;;;;;;8.47;7.77;;;;;;;;;;5073541;28;20859;-60
2023/04/19 00:30:41;;;;;;;8.73;8.03;;;;;;;;;;5073613;28;20421;-60
2023/04/19 00:33:11;;;;;;;11.20;7.30;;;;;;;;;;5073617;28;20414;-59
2023/04/19 00:35:37;;;;;;;8.40;7.50;;;;;;;;;;5073671;28;20402;-59
2023/04/19 00:38:03;;;;;;;8.93;8.03;;;;;;;;;;5073519;28;20426;-59
2023/04/19 00:40:30;;;;;;;9.47;8.63;;;;;;;;;;5073334;28;20478;-59
2023/04/19 00:42:56;;;;;;;8.73;7.83;;;;;;;;;;5072101;28;20463;-59
2023/04/19 00:45:25;;;;;;;10.20;8.00;;;;;;;;;;5073305;28;20877;-60
2023/04/19 00:47:51;;;;;;;8.83;8.10;;;;;;;;;;5073507;28;20499;-59
2023/04/19 00:50:17;;;;;;;10.90;9.90;;;;;;;;;;5073222;28;20410;-59
2023/04/19 00:52:43;;;;;;;9.23;8.43;;;;;;;;;;5073462;28;20469;-60
2023/04/19 00:55:09;;;;;;;10.00;8.80;;;;;;;;;;5071862;28;20787;-60
2023/04/19 00:57:37;;;;;;;9.30;8.40;;;;;;;;;;5073045;28;20506;-59
2023/04/19 01:00:08;;;;;;;8.60;7.90;;;;;;;;;;5073055;28;20433;-60
2023/04/19 01:02:34;;;;;;;9.33;8.33;;;;;;;;;;5073018;28;20425;-59
2023/04/19 01:05:00;;;;;;;9.50;8.60;;;;;;;;;;5072940;28;20398;-59
2023/04/19 01:07:26;;;;;;;11.73;10.57;;;;;;;;;;5073054;28;20387;-59
2023/04/19 01:09:54;;;;;;;13.03;8.67;;;;;;;;;;5072816;28;20444;-61
2023/04/19 01:12:21;;;;;;;9.37;8.47;;;;;;;;;;5072969;28;20398;-59
2023/04/19 01:14:47;;;;;;;8.90;8.00;;;;;;;;;;5072930;28;20463;-59
2023/04/19 01:17:13;;;;;;;9.90;9.00;;;;;;;;;;5072687;28;20441;-59
2023/04/19 01:19:39;;;;;;;9.10;7.40;;;;;;;;;;5072692;28;20453;-59
2023/04/19 01:22:05;;;;;;;8.77;8.07;;;;;;;;;;5071264;28;20477;-59
2023/04/19 01:24:31;;;;;;;8.67;7.87;;;;;;;;;;5072749;28;20390;-59
2023/04/19 01:26:57;;;;;;;10.20;9.07;;;;;;;;;;5072438;28;20465;-60
2023/04/19 01:29:23;;;;;;;9.20;8.50;;;;;;;;;;5072981;28;20445;-60
2023/04/19 01:31:52;;;;;;;9.83;8.83;;;;;;;;;;5072588;28;20422;-60
2023/04/19 01:34:18;;;;;;;9.43;8.53;;;;;;;;;;5072734;28;20408;-60
2023/04/19 01:36:44;;;;;;;9.10;8.30;;;;;;;;;;5072564;28;20821;-60
2023/04/19 01:39:10;;;;;;;10.03;9.07;;;;;;;;;;5071416;28;20418;-60
2023/04/19 01:41:36;;;;;;;8.30;7.73;;;;;;;;;;5071276;28;20948;-60
2023/04/19 01:44:02;;;;;;;10.20;9.30;;;;;;;;;;5072573;28;20430;-60
2023/04/19 01:46:28;;;;;;;8.47;7.80;;;;;;;;;;5072449;28;20402;-60
2023/04/19 01:48:57;;;;;;;9.20;8.40;;;;;;;;;;5072029;28;20402;-59
2023/04/19 01:51:23;;;;;;;9.30;8.53;;;;;;;;;;5072336;28;20782;-59
2023/04/19 01:53:53;;;;;;;14.50;7.90;;;;;;;;;;5072334;28;20411;-60
2023/04/19 01:56:20;;;;;;;8.10;7.50;;;;;;;;;;5072222;28;20434;-60
2023/04/19 01:58:46;;;;;;;8.73;7.97;;;;;;;;;;5072141;28;20430;-60
2023/04/19 02:01:12;;;;;;;8.57;7.87;;;;;;;;;;5072140;28;20465;-59
2023/04/19 02:03:39;;;;;;;9.23;8.43;;;;;;;;;;5072134;28;20395;-60
2023/04/19 02:06:05;;;;;;;7.93;7.30;;;;;;;;;;5072042;28;20873;-60
2023/04/19 02:08:30;;;;;;;8.17;7.47;;;;;;;;;;5072308;28;20434;-60
2023/04/19 02:10:56;;;;;;;7.90;7.30;;;;;;;;;;5071906;28;20429;-60
2023/04/19 02:13:22;;;;;;;8.87;8.03;;;;;;;;;;5072190;28;20775;-60
2023/04/19 02:15:49;;;;;;;9.57;8.77;;;;;;;;;;5072083;28;20445;-60
2023/04/19 02:18:16;;;;;;;8.90;8.20;;;;;;;;;;5071950;28;20430;-60
2023/04/19 02:20:42;;;;;;;8.97;8.27;;;;;;;;;;5071380;28;20458;-60
2023/04/19 02:23:08;;;;;;;8.87;8.07;;;;;;;;;;5072100;28;20460;-59
2023/04/19 02:25:34;;;;;;;7.73;7.20;;;;;;;;;;5072241;28;20413;-59
2023/04/19 02:28:00;;;;;;;8.97;8.27;;;;;;;;;;5071904;28;20422;-59
2023/04/19 02:30:26;;;;;;;8.27;7.67;;;;;;;;;;5071733;28;20434;-59
2023/04/19 02:32:53;;;;;;;8.40;7.43;;;;;;;;;;5071968;28;20455;-60
2023/04/19 02:35:19;;;;;;;7.73;7.17;;;;;;;;;;5071989;28;20856;-60
2023/04/19 02:37:45;;;;;;;9.10;8.40;;;;;;;;;;5071860;28;20406;-59
2023/04/19 02:40:11;;;;;;;9.43;8.70;;;;;;;;;;5071726;28;20406;-59
2023/04/19 02:42:37;;;;;;;12.00;9.30;;;;;;;;;;5071872;28;20466;-60
2023/04/19 02:45:05;;;;;;;9.67;8.77;;;;;;;;;;5072050;28;20474;-60
2023/04/19 02:47:34;;;;;;;9.13;8.33;;;;;;;;;;5070171;28;20532;-60
2023/04/19 02:50:01;;;;;;;9.87;9.07;;;;;;;;;;5072725;28;20483;-60
2023/04/19 02:52:27;;;;;;;9.90;9.10;;;;;;;;;;5075829;28;20410;-60
2023/04/19 02:54:55;;;;;;;10.03;9.17;;;;;;;;;;5075759;28;20406;-60
2023/04/19 02:57:21;;;;;;;9.57;8.77;;;;;;;;;;5075440;28;20438;-61
2023/04/19 02:59:47;;;;;;;10.53;9.60;;;;;;;;;;5075654;28;20448;-60
2023/04/19 03:02:13;;;;;;;10.20;9.30;;;;;;;;;;5075478;28;20489;-60
2023/04/19 03:04:39;;;;;;;9.10;8.20;;;;;;;;;;5075546;28;20410;-60
2023/04/19 03:07:06;;;;;;;9.70;8.90;;;;;;;;;;5075082;28;20445;-61
2023/04/19 03:09:32;;;;;;;10.07;9.27;;;;;;;;;;5075334;28;20907;-60
2023/04/19 03:11:58;;;;;;;9.70;8.90;;;;;;;;;;5075360;28;20449;-60
2023/04/19 03:14:24;;;;;;;10.23;9.33;;;;;;;;;;5075076;28;20437;-60
2023/04/19 03:16:50;;;;;;;10.23;9.33;;;;;;;;;;5075320;28;20417;-60
2023/04/19 03:19:16;;;;;;;11.30;8.37;;;;;;;;;;5075393;28;20423;-60
2023/04/19 03:21:42;;;;;;;9.67;8.67;;;;;;;;;;5075373;28;20928;-60
2023/04/19 03:24:10;;;;;;;9.40;8.60;;;;;;;;;;5075102;28;20429;-60
2023/04/19 03:26:39;;;;;;;9.43;8.53;;;;;;;;;;5075211;28;20492;-60
2023/04/19 03:29:05;;;;;;;9.10;8.40;;;;;;;;;;5074736;28;20414;-58
2023/04/19 03:31:31;;;;;;;8.83;7.93;;;;;;;;;;5074863;28;20441;-58
2023/04/19 03:33:57;;;;;;;11.67;8.43;;;;;;;;;;5074737;28;20417;-58
2023/04/19 03:36:23;;;;;;;9.40;8.67;;;;;;;;;;5075028;28;20771;-59
2023/04/19 03:38:49;;;;;;;10.13;9.17;;;;;;;;;;5074879;28;20904;-59
2023/04/19 03:41:21;;;;;;;8.33;7.43;;;;;;;;;;5074796;28;20491;-59
2023/04/19 03:43:47;;;;;;;9.57;8.10;;;;;;;;;;5073327;28;20426;-59
2023/04/19 03:46:13;;;;;;;9.97;9.07;;;;;;;;;;5074748;28;20421;-59
2023/04/19 03:48:39;;;;;;;9.57;8.67;;;;;;;;;;5074789;28;20418;-59
2023/04/19 03:51:05;;;;;;;10.17;9.17;;;;;;;;;;5074661;28;20514;-59
2023/04/19 03:53:31;;;;;;;12.73;9.07;;;;;;;;;;5074227;28;20467;-59
2023/04/19 03:56:01;;;;;;;9.60;8.70;;;;;;;;;;5073370;28;20410;-59
2023/04/19 03:58:30;;;;;;;11.93;8.13;;;;;;;;;;5074367;28;20495;-59
2023/04/19 04:00:56;;;;;;;9.97;8.97;;;;;;;;;;5072955;28;20476;-58
2023/04/19 04:03:22;;;;;;;9.67;8.77;;;;;;;;;;5074033;28;20433;-59
2023/04/19 04:05:48;;;;;;;9.50;8.70;;;;;;;;;;5074149;28;20440;-59
2023/04/19 04:08:14;;;;;;;13.13;11.83;;;;;;;;;;5073953;28;20915;-59
2023/04/19 04:10:39;;;;;;;11.70;10.50;;;;;;;;;;5074047;28;20433;-59
2023/04/19 04:13:05;;;;;;;11.00;10.00;;;;;;;;;;5074306;28;20414;-59
2023/04/19 04:15:34;;;;;;;12.53;11.20;;;;;;;;;;5074033;28;20430;-59
2023/04/19 04:18:00;;;;;;;12.40;11.20;;;;;;;;;;5074101;28;20428;-59
2023/04/19 04:20:26;;;;;;;13.27;11.83;;;;;;;;;;5073755;28;20405;-59
2023/04/19 04:22:52;;;;;;;10.67;9.77;;;;;;;;;;5074070;28;20805;-59
2023/04/19 04:25:18;;;;;;;12.07;10.87;;;;;;;;;;5073876;28;20425;-59
2023/04/19 04:27:44;;;;;;;12.40;11.20;;;;;;;;;;5074011;28;20426;-59
2023/04/19 04:30:11;;;;;;;11.03;10.00;;;;;;;;;;5073666;28;20881;-59
2023/04/19 04:32:39;;;;;;;11.93;10.80;;;;;;;;;;5073589;28;20505;-61
2023/04/19 04:35:09;;;;;;;11.07;10.07;;;;;;;;;;5073541;28;20445;-58
2023/04/19 04:37:35;;;;;;;11.70;10.60;;;;;;;;;;5074388;28;20414;-58
2023/04/19 04:40:04;;;;;;;12.30;11.20;;;;;;;;;;5073591;28;20897;-58
2023/04/19 04:42:31;;;;;;;12.90;11.70;;;;;;;;;;5072296;28;20552;-58
2023/04/19 04:44:57;;;;;;;17.57;11.30;;;;;;;;;;5073530;28;20414;-58
2023/04/19 04:47:24;;;;;;;15.00;11.63;;;;;;;;;;5073502;28;20900;-58
2023/04/19 04:49:51;;;;;;;13.33;11.33;;;;;;;;;;5072321;28;20472;-56
2023/04/19 04:52:17;;;;;;;12.47;11.20;;;;;;;;;;5073391;28;20471;-56
2023/04/19 04:54:43;;;;;;;14.03;12.63;;;;;;;;;;5073865;28;20446;-57
2023/04/19 04:57:09;;;;;;;13.10;11.77;;;;;;;;;;5073565;28;20418;-57
2023/04/19 04:59:36;;;;;;;21.50;15.50;;;;;;;;;;5073242;28;20456;-58
2023/04/19 05:02:06;;;;;;;15.30;13.77;;;;;;;;;;5055500;28;20867;-57
2023/04/19 05:04:35;;;;;;;14.70;13.30;;;;;;;;;;5073173;28;20896;-57
2023/04/19 05:07:01;;;;;;;18.17;15.90;;;;;;;;;;5073260;28;20491;-56
2023/04/19 05:09:27;;;;;;;20.43;16.90;;;;;;;;;;5073176;28;20410;-57
2023/04/19 05:11:53;;;;;;;15.40;13.33;;;;;;;;;;5073188;28;20985;-57
2023/04/19 05:14:21;;;;;;;12.60;11.40;;;;;;;;;;5071721;28;20479;-57
2023/04/19 05:16:47;;;;;;;14.50;13.00;;;;;;;;;;5071520;28;20479;-58
2023/04/19 05:19:13;;;;;;;17.03;14.00;;;;;;;;;;5073057;28;20453;-57
2023/04/19 05:21:39;;;;;;;20.53;14.20;;;;;;;;;;5072942;28;20477;-56
2023/04/19 05:24:05;;;;;;;15.47;12.57;;;;;;;;;;5072906;28;20405;-56
2023/04/19 05:26:33;;;;;;;18.67;13.17;;;;;;;;;;5072763;28;20475;-56
2023/04/19 05:28:59;;;;;;;14.20;12.80;;;;;;;;;;5071248;28;20413;-57
2023/04/19 05:31:25;;;;;;;16.00;13.07;;;;;;;;;;5071506;28;20819;-57
2023/04/19 05:33:51;;;;;;;14.00;12.60;;;;;;;;;;5072584;28;20416;-57
2023/04/19 05:36:17;;;;;;;15.63;12.60;;;;;;;;;;5072563;28;20418;-57
2023/04/19 05:38:43;;;;;;;19.87;14.40;;;;;;;;;;5072539;28;20440;-56
2023/04/19 05:41:10;;;;;;;65.23;47.40;;;;;;;;;;5072320;28;20457;-58
2023/04/19 05:43:38;;;;;;;34.10;26.30;;;;;;;;;;5072335;28;20902;-57
2023/04/19 05:46:04;;;;;;;16.37;14.60;;;;;;;;;;5072523;28;20390;-56
2023/04/19 05:48:30;;;;;;;15.43;13.83;;;;;;;;;;5072255;28;20406;-58
2023/04/19 05:50:57;;;;;;;15.53;13.93;;;;;;;;;;5072323;28;20567;-57
2023/04/19 05:53:25;;;;;;;15.90;13.90;;;;;;;;;;5072424;28;20497;-57
2023/04/19 05:55:56;;;;;;;15.70;14.00;;;;;;;;;;5071615;28;20432;-58
2023/04/19 05:58:22;;;;;;;17.30;13.50;;;;;;;;;;5072362;28;20426;-57
2023/04/19 06:00:48;;;;;;;14.80;13.40;;;;;;;;;;5072039;28;20454;-57
2023/04/19 06:03:14;;;;;;;17.97;13.90;;;;;;;;;;5072179;28;20406;-57
2023/04/19 06:05:43;;;;;;;18.73;16.07;;;;;;;;;;5072299;28;20759;-57
2023/04/19 06:08:09;;;;;;;21.10;13.97;;;;;;;;;;5072055;28;20489;-57
2023/04/19 06:10:35;;;;;;;28.43;18.60;;;;;;;;;;5072162;28;20457;-56
2023/04/19 06:13:01;;;;;;;30.13;20.10;;;;;;;;;;5072074;28;20966;-57
2023/04/19 06:15:30;;;;;;;29.10;20.00;;;;;;;;;;5072111;28;20426;-57
2023/04/19 06:17:58;;;;;;;25.13;19.70;;;;;;;;;;5072127;28;20469;-57
2023/04/19 06:20:26;;;;;;;21.60;18.37;;;;;;;;;;5072013;28;20434;-57
2023/04/19 06:22:52;;;;;;;52.13;38.27;;;;;;;;;;5071949;28;20413;-57
2023/04/19 06:25:18;;;;;;;22.83;18.93;;;;;;;;;;5071385;28;20459;-57
2023/04/19 06:27:44;;;;;;;19.83;17.23;;;;;;;;;;5072052;28;20915;-57
2023/04/19 06:30:10;;;;;;;24.00;15.17;;;;;;;;;;5071976;28;20924;-57
2023/04/19 06:32:36;;;;;;;16.37;14.50;;;;;;;;;;5072026;28;20419;-57
2023/04/19 06:35:03;;;;;;;16.87;14.63;;;;;;;;;;5071882;28;20469;-56
2023/04/19 06:37:29;;;;;;;20.70;15.53;;;;;;;;;;5072058;28;20442;-56
2023/04/19 06:39:55;;;;;;;22.20;17.60;;;;;;;;;;5071846;28;20550;-56
2023/04/19 06:42:22;;;;;;;26.03;19.30;;;;;;;;;;5071849;28;20465;-56
2023/04/19 06:44:48;;;;;;;22.00;17.87;;;;;;;;;;5071627;28;20853;-55
2023/04/19 06:47:14;;;;;;;22.90;15.80;;;;;;;;;;5071738;28;20413;-57
2023/04/19 06:49:40;;;;;;;17.67;15.20;;;;;;;;;;5071783;28;20409;-56
2023/04/19 06:52:06;;;;;;;18.33;16.43;;;;;;;;;;5071818;28;20747;-57
2023/04/19 06:54:32;;;;;;;17.73;15.90;;;;;;;;;;5071798;28;20410;-56
2023/04/19 06:56:58;;;;;;;22.27;17.17;;;;;;;;;;5071709;28;20446;-56
2023/04/19 06:59:27;;;;;;;18.57;16.03;;;;;;;;;;5071702;28;20917;-57
2023/04/19 07:01:53;;;;;;;19.73;16.53;;;;;;;;;;5071716;28;20551;-56
2023/04/19 07:04:19;;;;;;;20.70;17.27;;;;;;;;;;5071682;28;20955;-57
2023/04/19 07:06:48;;;;;;;21.23;16.77;;;;;;;;;;5071558;28;20751;-55
2023/04/19 07:09:16;;;;;;;22.57;17.33;;;;;;;;;;5071598;28;20434;-56
2023/04/19 07:11:47;;;;;;;20.00;16.83;;;;;;;;;;5071772;28;21076;-57
2023/04/19 07:14:13;;;;;;;17.60;14.70;;;;;;;;;;5071506;28;20471;-55
2023/04/19 07:16:39;;;;;;;20.30;16.40;;;;;;;;;;5071736;28;20406;-56
2023/04/19 07:19:05;;;;;;;16.73;15.00;;;;;;;;;;5071579;28;20533;-57
2023/04/19 07:21:32;;;;;;;20.40;17.50;;;;;;;;;;5071562;28;20465;-57
2023/04/19 07:24:01;;;;;;;21.43;17.27;;;;;;;;;;5071454;28;20952;-57
2023/04/19 07:26:27;;;;;;;19.33;17.17;;;;;;;;;;5071600;28;20997;-57
2023/04/19 07:28:55;;;;;;;20.40;17.10;;;;;;;;;;5071490;28;20493;-56
2023/04/19 07:31:23;;;;;;;19.33;16.10;;;;;;;;;;5071579;28;20863;-57
2023/04/19 07:33:49;;;;;;;17.90;15.57;;;;;;;;;;5071520;28;20406;-56
2023/04/19 07:36:15;;;;;;;18.10;15.40;;;;;;;;;;5072225;28;20485;-57
2023/04/19 07:38:41;;;;;;;18.17;15.77;;;;;;;;;;5075035;28;20499;-57
2023/04/19 07:41:08;;;;;;;17.50;15.53;;;;;;;;;;5074738;28;20949;-56
2023/04/19 07:43:34;;;;;;;18.50;16.57;;;;;;;;;;5074728;28;20422;-55
2023/04/19 07:46:00;;;;;;;18.43;16.53;;;;;;;;;;5074591;28;20410;-57
2023/04/19 07:48:26;;;;;;;19.20;16.40;;;;;;;;;;5074760;28;20444;-57
2023/04/19 07:50:52;;;;;;;19.40;16.80;;;;;;;;;;5074651;28;20496;-57
2023/04/19 07:53:18;;;;;;;16.20;14.50;;;;;;;;;;5074883;28;20445;-55
2023/04/19 07:55:44;;;;;;;20.20;16.70;;;;;;;;;;5074627;28;20414;-56
2023/04/19 07:58:11;;;;;;;23.67;18.57;;;;;;;;;;5074424;28;20820;-55
2023/04/19 08:00:37;;;;;;;42.77;33.07;;;;;;;;;;5074390;28;20433;-56
2023/04/19 08:03:03;;;;;;;20.20;16.77;;;;;;;;;;5074446;28;20471;-57
2023/04/19 08:05:30;;;;;;;19.43;16.33;;;;;;;;;;5074591;28;20477;-56
2023/04/19 08:07:56;;;;;;;19.30;16.93;;;;;;;;;;5074248;28;20414;-56
2023/04/19 08:10:22;;;;;;;24.53;16.93;;;;;;;;;;5074306;28;20486;-56
2023/04/19 08:12:48;;;;;;;18.50;16.53;;;;;;;;;;5074862;28;20410;-56
2023/04/19 08:15:15;;;;;;;19.83;17.67;;;;;;;;;;5074691;28;20864;-57
2023/04/19 08:17:42;;;;;;;18.43;16.53;;;;;;;;;;5074906;28;20475;-56
2023/04/19 08:20:09;;;;;;;17.50;15.60;;;;;;;;;;5074598;28;20440;-57
2023/04/19 08:22:35;;;;;;;21.90;16.33;;;;;;;;;;5074729;28;20560;-56
2023/04/19 08:25:05;;;;;;;24.83;16.73;;;;;;;;;;5074502;28;20441;-56
2023/04/19 08:27:31;;;;;;;17.20;15.30;;;;;;;;;;5074383;28;20425;-56
2023/04/19 08:29:57;;;;;;;18.17;15.63;;;;;;;;;;5073011;28;20450;-57
2023/04/19 08:32:23;;;;;;;18.30;15.87;;;;;;;;;;5074265;28;20471;-57
2023/04/19 08:34:49;;;;;;;18.60;16.00;;;;;;;;;;5074217;28;20789;-56
2023/04/19 08:37:17;;;;;;;20.40;16.73;;;;;;;;;;5073164;28;20429;-56
2023/04/19 08:39:43;;;;;;;28.90;23.13;;;;;;;;;;5074060;28;20446;-56
2023/04/19 08:42:09;;;;;;;22.30;18.63;;;;;;;;;;5074058;28;20538;-57
2023/04/19 08:44:39;;;;;;;20.87;16.37;;;;;;;;;;5074077;28;20457;-56
2023/04/19 08:47:06;;;;;;;21.23;16.47;;;;;;;;;;5073668;28;20382;-57
2023/04/19 08:49:35;;;;;;;21.20;17.03;;;;;;;;;;5073910;28;20414;-56
2023/04/19 08:52:02;;;;;;;18.87;16.87;;;;;;;;;;5073981;28;20502;-56
2023/04/19 08:54:29;;;;;;;21.67;17.60;;;;;;;;;;5073868;28;20488;-57
2023/04/19 08:56:58;;;;;;;16.70;15.00;;;;;;;;;;5073779;28;20421;-57
2023/04/19 08:59:27;;;;;;;20.70;17.07;;;;;;;;;;5073438;28;20442;-56
2023/04/19 09:01:55;;;;;;;18.23;16.40;;;;;;;;;;5074014;28;20465;-56
2023/04/19 09:04:21;;;;;;;19.73;16.67;;;;;;;;;;5073560;28;20442;-56
2023/04/19 09:06:47;;;;;;;19.13;16.60;;;;;;;;;;5073643;28;20406;-57
2023/04/19 09:09:15;;;;;;;18.60;16.13;;;;;;;;;;5073582;28;20414;-56
2023/04/19 09:11:41;;;;;;;17.37;15.50;;;;;;;;;;5073380;28;20411;-57
2023/04/19 09:14:12;;;;;;;19.00;15.20;;;;;;;;;;5073298;28;20418;-57
2023/04/19 09:16:38;;;;;;;17.97;16.10;;;;;;;;;;5073246;28;20410;-56
2023/04/19 09:19:05;;;;;;;17.90;15.50;;;;;;;;;;5073148;28;20418;-57
2023/04/19 09:21:32;;;;;;;16.57;14.97;;;;;;;;;;5073229;28;20454;-57
2023/04/19 09:23:59;;;;;;;16.70;14.93;;;;;;;;;;5073265;28;20430;-57
2023/04/19 09:26:28;;;;;;;17.00;15.20;;;;;;;;;;5073173;28;20412;-57
2023/04/19 09:29:01;;;;;;;26.07;20.60;;;;;;;;;;5073167;28;20890;-57
2023/04/19 09:31:28;;;;;;;26.60;22.57;;;;;;;;;;5073452;28;20420;-57
2023/04/19 09:33:57;;;;;;;16.87;15.17;;;;;;;;;;5072971;28;20821;-57
2023/04/19 09:36:32;;;;;;;21.23;15.03;;;;;;;;;;5071684;28;20445;-57
2023/04/19 09:39:00;;;;;;;16.10;14.40;;;;;;;;;;5072994;28;20418;-57
2023/04/19 09:41:26;;;;;;;15.50;13.90;;;;;;;;;;5072885;28;20473;-57
2023/04/19 09:43:55;;;;;;;17.97;15.23;;;;;;;;;;5072889;28;20406;-57
2023/04/19 09:46:36;;;;;;;16.00;14.43;;;;;;;;;;5072987;28;20438;-57
2023/04/19 09:49:14;;;;;;;19.90;14.50;;;;;;;;;;5055355;28;20840;-57
2023/04/19 09:51:43;;;;;;;21.47;14.80;;;;;;;;;;5072713;28;20424;-57
2023/04/19 09:54:10;;;;;;;18.23;15.20;;;;;;;;;;5072756;28;20499;-57
2023/04/19 09:56:36;;;;;;;17.10;14.80;;;;;;;;;;5073386;28;20444;-57
2023/04/19 09:59:03;;;;;;;16.17;14.50;;;;;;;;;;5072320;28;20438;-57
2023/04/19 10:01:31;;;;;;;16.23;14.13;;;;;;;;;;5072742;28;20812;-57
2023/04/19 10:03:58;;;;;;;20.40;14.53;;;;;;;;;;5072531;28;20942;-57
2023/04/19 10:06:24;;;;;;;15.63;13.93;;;;;;;;;;5071757;28;20470;-57
2023/04/19 10:08:50;;;;;;;14.90;13.33;;;;;;;;;;5071708;28;20425;-56
2023/04/19 10:11:16;;;;;;;18.90;14.60;;;;;;;;;;5072792;28;20445;-56
2023/04/19 10:13:43;;;;;;;15.33;13.77;;;;;;;;;;5072718;28;20821;-56
2023/04/19 10:16:10;;;;;;;16.00;14.40;;;;;;;;;;5072464;28;20441;-56
2023/04/19 10:18:38;;;;;;;15.13;13.70;;;;;;;;;;5072709;28;20482;-57
2023/04/19 10:21:06;;;;;;;16.00;12.63;;;;;;;;;;5072308;28;20518;-56
2023/04/19 10:23:33;;;;;;;12.70;11.07;;;;;;;;;;5072417;28;20893;-56
2023/04/19 10:25:59;;;;;;;12.67;11.47;;;;;;;;;;5072419;28;20950;-56
2023/04/19 10:28:29;;;;;;;11.00;10.10;;;;;;;;;;5072279;28;20438;-56
2023/04/19 10:31:02;;;;;;;9.37;8.47;;;;;;;;;;5072170;28;20412;-57
2023/04/19 10:33:30;;;;;;;7.70;7.10;;;;;;;;;;5072351;28;20405;-57
2023/04/19 10:35:57;;;;;;;6.30;6.00;;;;;;;;;;5072138;28;20564;-57
2023/04/19 10:38:35;;;;;;;6.20;5.80;;;;;;;;;;5072244;28;20454;-55
2023/04/19 10:41:03;;;;;;;6.27;5.93;;;;;;;;;;5072049;28;20470;-57
2023/04/19 10:43:35;;;;;;;7.20;6.80;;;;;;;;;;5072151;28;20447;-56
2023/04/19 10:46:07;;;;;;;9.40;8.50;;;;;;;;;;5072186;28;20540;-56
2023/04/19 10:48:34;;;;;;;10.33;9.33;;;;;;;;;;5070434;28;20452;-56
2023/04/19 10:51:01;;;;;;;16.00;12.80;;;;;;;;;;5071328;28;20876;-55
2023/04/19 10:53:42;;;;;;;14.47;12.70;;;;;;;;;;5070730;28;20419;-56
2023/04/19 10:56:09;;;;;;;14.97;13.37;;;;;;;;;;5071807;28;20418;-56
2023/04/19 10:58:53;;;;;;;17.03;14.10;;;;;;;;;;5071810;28;20454;-57
2023/04/19 11:01:38;;;;;;;28.50;14.70;;;;;;;;;;5071551;28;20473;-56
2023/04/19 11:04:04;;;;;;;17.37;14.97;;;;;;;;;;5071668;28;20901;-55
2023/04/19 11:06:30;;;;;;;16.53;14.07;;;;;;;;;;5071731;28;20445;-55
2023/04/19 11:08:56;;;;;;;17.77;15.20;;;;;;;;;;5071785;28;20411;-56
2023/04/19 11:11:24;;;;;;;20.67;16.33;;;;;;;;;;5073351;28;20439;-57
2023/04/19 11:13:50;;;;;;;16.77;14.33;;;;;;;;;;5075195;28;20418;-56
2023/04/19 11:16:16;;;;;;;26.07;20.53;;;;;;;;;;5075081;28;20426;-56
2023/04/19 11:18:44;;;;;;;31.70;17.43;;;;;;;;;;5075032;28;20425;-56
2023/04/19 11:21:19;;;;;;;16.13;13.73;;;;;;;;;;5074956;28;20449;-55
2023/04/19 11:23:46;;;;;;;22.77;14.17;;;;;;;;;;5075368;28;20759;-56
2023/04/19 11:26:12;;;;;;;16.50;14.80;;;;;;;;;;5075135;28;20410;-56
2023/04/19 11:28:41;;;;;;;17.80;14.97;;;;;;;;;;5075012;28;20474;-56
2023/04/19 11:31:07;;;;;;;17.43;15.50;;;;;;;;;;5074910;28;20929;-57
2023/04/19 11:33:36;;;;;;;19.20;16.60;;;;;;;;;;5073711;28;20477;-56
2023/04/19 11:36:03;;;;;;;17.37;15.53;;;;;;;;;;5073484;28;20454;-56
2023/04/19 11:38:34;;;;;;;17.30;15.50;;;;;;;;;;5074728;28;20414;-56
2023/04/19 11:41:00;;;;;;;19.30;15.90;;;;;;;;;;5074448;28;20474;-56
2023/04/19 11:43:33;;;;;;;23.27;15.53;;;;;;;;;;5073460;28;20422;-56
2023/04/19 11:46:09;;;;;;;16.00;14.33;;;;;;;;;;5074461;28;20475;-57
2023/04/19 11:48:35;;;;;;;17.30;15.50;;;;;;;;;;5074696;28;20421;-56
2023/04/19 11:51:01;;;;;;;17.13;14.80;;;;;;;;;;5074460;28;20519;-56
2023/04/19 11:53:28;;;;;;;25.20;16.20;;;;;;;;;;5074547;28;20468;-57
2023/04/19 11:55:57;;;;;;;18.83;15.27;;;;;;;;;;5073818;28;20468;-56
2023/04/19 11:58:28;;;;;;;21.47;16.47;;;;;;;;;;5074398;28;20441;-56
2023/04/19 12:00:54;;;;;;;20.53;16.60;;;;;;;;;;5074331;28;20969;-57
2023/04/19 12:03:21;;;;;;;16.90;15.20;;;;;;;;;;5074269;28;20504;-57
2023/04/19 12:05:54;;;;;;;17.87;15.43;;;;;;;;;;5074313;28;20406;-56
2023/04/19 12:08:32;;;;;;;15.90;13.87;;;;;;;;;;5074230;28;20405;-56
2023/04/19 12:11:02;;;;;;;16.30;14.70;;;;;;;;;;5074056;28;20438;-56
2023/04/19 12:13:29;;;;;;;14.90;13.33;;;;;;;;;;5074075;28;20437;-57
2023/04/19 12:16:01;;;;;;;16.20;14.20;;;;;;;;;;5074486;28;20459;-57
2023/04/19 12:18:27;;;;;;;17.90;14.80;;;;;;;;;;5072935;28;20442;-56
2023/04/19 12:20:53;;;;;;;16.20;14.10;;;;;;;;;;5074002;28;20468;-56
2023/04/19 12:23:20;;;;;;;15.87;14.27;;;;;;;;;;5073106;28;20455;-56
2023/04/19 12:25:50;;;;;;;19.77;14.67;;;;;;;;;;5073993;28;20751;-56
2023/04/19 12:28:19;;;;;;;14.87;13.37;;;;;;;;;;5073852;28;20926;-56
2023/04/19 12:30:46;;;;;;;16.73;14.93;;;;;;;;;;5073962;28;20413;-57
2023/04/19 12:33:12;;;;;;;16.40;14.70;;;;;;;;;;5073962;28;20388;-57
2023/04/19 12:35:38;;;;;;;14.23;12.87;;;;;;;;;;5073592;28;20811;-59
2023/04/19 12:38:04;;;;;;;13.80;12.60;;;;;;;;;;5073571;28;20450;-59
2023/04/19 12:40:30;;;;;;;13.77;12.47;;;;;;;;;;5071970;28;20929;-58
2023/04/19 12:42:56;;;;;;;18.10;12.87;;;;;;;;;;5073369;28;20408;-58
2023/04/19 12:45:22;;;;;;;12.93;11.83;;;;;;;;;;5073441;28;20432;-59
2023/04/19 12:47:48;;;;;;;13.23;12.03;;;;;;;;;;5073368;28;20406;-59
2023/04/19 12:50:17;;;;;;;14.90;13.40;;;;;;;;;;5073256;28;20418;-59
2023/04/19 12:52:46;;;;;;;14.47;13.10;;;;;;;;;;5073192;28;20803;-59
2023/04/19 12:55:12;;;;;;;14.57;12.40;;;;;;;;;;5073371;28;20405;-59
2023/04/19 12:57:38;;;;;;;13.90;12.40;;;;;;;;;;5073314;28;20501;-60
2023/04/19 13:00:06;;;;;;;13.63;12.20;;;;;;;;;;5073324;28;20435;-60
2023/04/19 13:02:33;;;;;;;13.73;12.33;;;;;;;;;;5073018;28;20471;-59
2023/04/19 13:05:03;;;;;;;13.00;11.70;;;;;;;;;;5072169;28;20774;-60
2023/04/19 13:07:32;;;;;;;13.30;11.90;;;;;;;;;;5071809;28;20476;-60
2023/04/19 13:09:58;;;;;;;12.60;11.47;;;;;;;;;;5073220;28;20415;-60
2023/04/19 13:12:25;;;;;;;12.47;11.23;;;;;;;;;;5072927;28;20481;-60
2023/04/19 13:14:51;;;;;;;13.17;11.93;;;;;;;;;;5071396;28;20429;-59
2023/04/19 13:17:20;;;;;;;12.40;11.10;;;;;;;;;;5072948;28;20423;-59
2023/04/19 13:19:46;;;;;;;13.60;11.77;;;;;;;;;;5072418;28;20941;-59
2023/04/19 13:22:12;;;;;;;33.03;24.07;;;;;;;;;;5070984;28;20464;-59
2023/04/19 13:24:38;;;;;;;13.37;12.10;;;;;;;;;;5072340;28;20539;-59
2023/04/19 13:27:04;;;;;;;12.70;11.40;;;;;;;;;;5072023;28;20482;-59
2023/04/19 13:29:30;;;;;;;13.60;12.30;;;;;;;;;;5072462;28;20895;-58
2023/04/19 13:31:56;;;;;;;13.83;12.60;;;;;;;;;;5072626;28;20407;-59
2023/04/19 13:34:22;;;;;;;14.00;11.83;;;;;;;;;;5072333;28;20896;-59
2023/04/19 13:36:48;;;;;;;12.63;11.33;;;;;;;;;;5070922;28;20451;-59
2023/04/19 13:39:14;;;;;;;13.57;12.20;;;;;;;;;;5072515;28;20419;-58
2023/04/19 13:41:40;;;;;;;12.70;11.57;;;;;;;;;;5072252;28;20554;-59
2023/04/19 13:44:06;;;;;;;14.77;12.17;;;;;;;;;;5072594;28;20424;-59
2023/04/19 13:46:32;;;;;;;13.80;11.53;;;;;;;;;;5072345;28;20434;-59
2023/04/19 13:48:59;;;;;;;13.10;11.80;;;;;;;;;;5072710;28;20413;-59
2023/04/19 13:51:28;;;;;;;13.00;11.67;;;;;;;;;;5072369;28;20523;-59
2023/04/19 13:53:54;;;;;;;14.50;11.37;;;;;;;;;;5072406;28;20420;-59
2023/04/19 13:56:21;;;;;;;15.87;12.53;;;;;;;;;;5072269;28;20420;-59
2023/04/19 13:58:47;;;;;;;22.53;12.07;;;;;;;;;;5072225;28;20460;-59
2023/04/19 14:01:13;;;;;;;12.90;11.80;;;;;;;;;;5070831;28;20510;-59
2023/04/19 14:03:40;;;;;;;12.83;11.60;;;;;;;;;;5072046;28;20472;-59
2023/04/19 14:06:06;;;;;;;12.30;11.10;;;;;;;;;;5072214;28;20427;-59
2023/04/19 14:08:32;;;;;;;11.57;10.60;;;;;;;;;;5071849;28;20404;-58
2023/04/19 14:10:58;;;;;;;16.33;10.43;;;;;;;;;;5071992;28;20778;-59
2023/04/19 14:13:24;;;;;;;10.70;9.60;;;;;;;;;;5072204;28;20825;-59
2023/04/19 14:15:50;;;;;;;11.47;9.70;;;;;;;;;;5072127;28;20465;-59
2023/04/19 14:18:19;;;;;;;10.47;9.60;;;;;;;;;;5072109;28;20420;-58
2023/04/19 14:20:45;;;;;;;12.93;9.13;;;;;;;;;;5071776;28;20430;-59
2023/04/19 14:23:11;;;;;;;9.70;8.77;;;;;;;;;;5072175;28;20426;-59